sensor_id;sensor_type;location;lat;lon;timestamp;P1;durP1;ratioP1;P2;durP2;ratioP2
30370;SDS011;17164;48.590;11.410;2022-08-14T00:00:00;4.63;;;1.90;;
30370;SDS011;17164;48.590;11.410;2022-08-14T00:02:26;3.97;;;1.90;;
30370;SDS011;17164;48.590;11.410;2022-08-14T00:04:52;5.00;;;2.07;;
30370;SDS011;17164;48.590;11.410;2022-08-14T00:07:17;3.30;;;2.23;;
30370;SDS011;17164;48.590;11.410;2022-08-14T00:09:43;3.77;;;1.97;;
30370;SDS011;17164;48.590;11.410;2022-08-14T00:12:09;4.50;;;2.17;;
30370;SDS011;17164;48.590;11.410;2022-08-14T00:14:36;4.13;;;2.47;;
30370;SDS011;17164;48.590;11.410;2022-08-14T00:17:03;1.83;;;1.60;;
30370;SDS011;17164;48.590;11.410;2022-08-14T00:19:29;3.10;;;2.30;;
30370;SDS011;17164;48.590;11.410;2022-08-14T00:21:55;3.87;;;2.03;;
30370;SDS011;17164;48.590;11.410;2022-08-14T00:24:21;2.80;;;2.07;;
30370;SDS011;17164;48.590;11.410;2022-08-14T00:26:47;7.23;;;2.30;;
30370;SDS011;17164;48.590;11.410;2022-08-14T00:29:13;5.37;;;2.50;;
30370;SDS011;17164;48.590;11.410;2022-08-14T00:31:39;5.67;;;2.30;;
30370;SDS011;17164;48.590;11.410;2022-08-14T00:34:05;3.10;;;1.97;;
30370;SDS011;17164;48.590;11.410;2022-08-14T00:36:30;3.37;;;2.23;;
30370;SDS011;17164;48.590;11.410;2022-08-14T00:38:56;4.20;;;2.10;;
30370;SDS011;17164;48.590;11.410;2022-08-14T00:41:22;5.87;;;2.10;;
30370;SDS011;17164;48.590;11.410;2022-08-14T00:43:53;3.67;;;2.30;;
30370;SDS011;17164;48.590;11.410;2022-08-14T00:46:19;6.40;;;2.17;;
30370;SDS011;17164;48.590;11.410;2022-08-14T00:48:44;4.20;;;2.40;;
30370;SDS011;17164;48.590;11.410;2022-08-14T00:51:12;3.80;;;2.03;;
30370;SDS011;17164;48.590;11.410;2022-08-14T00:53:38;4.73;;;2.30;;
30370;SDS011;17164;48.590;11.410;2022-08-14T00:56:04;2.97;;;2.13;;
30370;SDS011;17164;48.590;11.410;2022-08-14T00:58:32;4.67;;;2.00;;
30370;SDS011;17164;48.590;11.410;2022-08-14T01:01:00;7.37;;;2.37;;
30370;SDS011;17164;48.590;11.410;2022-08-14T01:03:26;4.83;;;2.33;;
30370;SDS011;17164;48.590;11.410;2022-08-14T01:05:56;2.63;;;2.00;;
30370;SDS011;17164;48.590;11.410;2022-08-14T01:08:24;3.13;;;2.30;;
30370;SDS011;17164;48.590;11.410;2022-08-14T01:10:52;5.83;;;2.43;;
30370;SDS011;17164;48.590;11.410;2022-08-14T01:13:29;4.40;;;2.40;;
30370;SDS011;17164;48.590;11.410;2022-08-14T01:16:00;4.73;;;2.57;;
30370;SDS011;17164;48.590;11.410;2022-08-14T01:18:27;2.80;;;1.97;;
30370;SDS011;17164;48.590;11.410;2022-08-14T01:21:13;3.40;;;2.03;;
30370;SDS011;17164;48.590;11.410;2022-08-14T01:23:47;4.30;;;2.23;;
30370;SDS011;17164;48.590;11.410;2022-08-14T01:26:18;2.77;;;1.90;;
30370;SDS011;17164;48.590;11.410;2022-08-14T01:28:45;5.60;;;2.17;;
30370;SDS011;17164;48.590;11.410;2022-08-14T01:31:16;3.40;;;2.57;;
30370;SDS011;17164;48.590;11.410;2022-08-14T01:33:44;4.10;;;2.07;;
30370;SDS011;17164;48.590;11.410;2022-08-14T01:36:12;3.40;;;2.03;;
30370;SDS011;17164;48.590;11.410;2022-08-14T01:38:41;2.63;;;1.90;;
30370;SDS011;17164;48.590;11.410;2022-08-14T01:41:13;3.43;;;2.50;;
30370;SDS011;17164;48.590;11.410;2022-08-14T01:43:44;2.10;;;1.80;;
30370;SDS011;17164;48.590;11.410;2022-08-14T01:46:25;4.93;;;2.13;;
30370;SDS011;17164;48.590;11.410;2022-08-14T01:48:51;2.77;;;2.20;;
30370;SDS011;17164;48.590;11.410;2022-08-14T01:51:20;3.30;;;2.57;;
30370;SDS011;17164;48.590;11.410;2022-08-14T01:53:53;5.23;;;2.17;;
30370;SDS011;17164;48.590;11.410;2022-08-14T01:56:21;4.33;;;2.50;;
30370;SDS011;17164;48.590;11.410;2022-08-14T01:58:54;2.97;;;2.17;;
30370;SDS011;17164;48.590;11.410;2022-08-14T02:01:20;2.83;;;2.23;;
30370;SDS011;17164;48.590;11.410;2022-08-14T02:03:46;4.13;;;2.27;;
30370;SDS011;17164;48.590;11.410;2022-08-14T02:06:12;2.50;;;2.13;;
30370;SDS011;17164;48.590;11.410;2022-08-14T02:08:39;3.47;;;2.10;;
30370;SDS011;17164;48.590;11.410;2022-08-14T02:11:06;3.43;;;2.43;;
30370;SDS011;17164;48.590;11.410;2022-08-14T02:13:58;3.47;;;2.10;;
30370;SDS011;17164;48.590;11.410;2022-08-14T02:16:28;3.00;;;2.30;;
30370;SDS011;17164;48.590;11.410;2022-08-14T02:18:59;5.10;;;2.33;;
30370;SDS011;17164;48.590;11.410;2022-08-14T02:21:27;4.50;;;2.33;;
30370;SDS011;17164;48.590;11.410;2022-08-14T02:23:55;2.77;;;2.00;;
30370;SDS011;17164;48.590;11.410;2022-08-14T02:26:25;3.43;;;2.30;;
30370;SDS011;17164;48.590;11.410;2022-08-14T02:28:57;4.43;;;2.33;;
30370;SDS011;17164;48.590;11.410;2022-08-14T02:31:26;2.80;;;1.90;;
30370;SDS011;17164;48.590;11.410;2022-08-14T02:33:54;2.40;;;1.83;;
30370;SDS011;17164;48.590;11.410;2022-08-14T02:36:20;2.73;;;2.03;;
30370;SDS011;17164;48.590;11.410;2022-08-14T02:38:46;4.47;;;2.50;;
30370;SDS011;17164;48.590;11.410;2022-08-14T02:41:12;3.90;;;2.50;;
30370;SDS011;17164;48.590;11.410;2022-08-14T02:43:38;2.90;;;2.07;;
30370;SDS011;17164;48.590;11.410;2022-08-14T02:46:05;6.03;;;2.07;;
30370;SDS011;17164;48.590;11.410;2022-08-14T02:48:34;3.67;;;2.40;;
30370;SDS011;17164;48.590;11.410;2022-08-14T02:51:05;3.93;;;2.30;;
30370;SDS011;17164;48.590;11.410;2022-08-14T02:53:34;3.27;;;2.43;;
30370;SDS011;17164;48.590;11.410;2022-08-14T02:56:02;2.80;;;2.07;;
30370;SDS011;17164;48.590;11.410;2022-08-14T02:58:28;3.70;;;2.50;;
30370;SDS011;17164;48.590;11.410;2022-08-14T03:00:54;3.63;;;2.20;;
30370;SDS011;17164;48.590;11.410;2022-08-14T03:03:20;4.03;;;2.40;;
30370;SDS011;17164;48.590;11.410;2022-08-14T03:05:48;3.20;;;2.40;;
30370;SDS011;17164;48.590;11.410;2022-08-14T03:08:15;2.80;;;2.40;;
30370;SDS011;17164;48.590;11.410;2022-08-14T03:10:41;4.50;;;2.40;;
30370;SDS011;17164;48.590;11.410;2022-08-14T03:13:08;3.63;;;2.50;;
30370;SDS011;17164;48.590;11.410;2022-08-14T03:15:34;4.53;;;2.50;;
30370;SDS011;17164;48.590;11.410;2022-08-14T03:18:20;3.37;;;2.17;;
30370;SDS011;17164;48.590;11.410;2022-08-14T03:20:47;3.17;;;2.40;;
30370;SDS011;17164;48.590;11.410;2022-08-14T03:23:14;3.10;;;2.30;;
30370;SDS011;17164;48.590;11.410;2022-08-14T03:25:40;3.40;;;2.20;;
30370;SDS011;17164;48.590;11.410;2022-08-14T03:28:07;3.93;;;2.50;;
30370;SDS011;17164;48.590;11.410;2022-08-14T03:30:33;3.13;;;2.20;;
30370;SDS011;17164;48.590;11.410;2022-08-14T03:33:00;4.67;;;2.53;;
30370;SDS011;17164;48.590;11.410;2022-08-14T03:35:26;3.33;;;2.40;;
30370;SDS011;17164;48.590;11.410;2022-08-14T03:37:53;4.57;;;2.30;;
30370;SDS011;17164;48.590;11.410;2022-08-14T03:40:20;4.50;;;2.30;;
30370;SDS011;17164;48.590;11.410;2022-08-14T03:42:47;5.80;;;2.43;;
30370;SDS011;17164;48.590;11.410;2022-08-14T03:45:13;5.03;;;2.43;;
30370;SDS011;17164;48.590;11.410;2022-08-14T03:47:41;3.57;;;2.20;;
30370;SDS011;17164;48.590;11.410;2022-08-14T03:50:08;2.70;;;2.30;;
30370;SDS011;17164;48.590;11.410;2022-08-14T03:52:37;3.00;;;2.37;;
30370;SDS011;17164;48.590;11.410;2022-08-14T03:55:08;2.63;;;2.20;;
30370;SDS011;17164;48.590;11.410;2022-08-14T03:57:36;6.30;;;2.60;;
30370;SDS011;17164;48.590;11.410;2022-08-14T04:00:04;3.70;;;2.67;;
30370;SDS011;17164;48.590;11.410;2022-08-14T04:02:34;7.37;;;3.30;;
30370;SDS011;17164;48.590;11.410;2022-08-14T04:05:01;3.87;;;2.70;;
30370;SDS011;17164;48.590;11.410;2022-08-14T04:07:27;3.83;;;2.97;;
30370;SDS011;17164;48.590;11.410;2022-08-14T04:09:52;5.17;;;2.80;;
30370;SDS011;17164;48.590;11.410;2022-08-14T04:12:18;4.83;;;2.97;;
30370;SDS011;17164;48.590;11.410;2022-08-14T04:14:45;3.87;;;3.10;;
30370;SDS011;17164;48.590;11.410;2022-08-14T04:17:11;6.07;;;2.83;;
30370;SDS011;17164;48.590;11.410;2022-08-14T04:19:37;3.90;;;2.57;;
30370;SDS011;17164;48.590;11.410;2022-08-14T04:22:03;4.27;;;2.53;;
30370;SDS011;17164;48.590;11.410;2022-08-14T04:24:30;4.67;;;2.97;;
30370;SDS011;17164;48.590;11.410;2022-08-14T04:26:57;3.80;;;2.53;;
30370;SDS011;17164;48.590;11.410;2022-08-14T04:29:23;5.47;;;2.53;;
30370;SDS011;17164;48.590;11.410;2022-08-14T04:31:48;8.97;;;3.13;;
30370;SDS011;17164;48.590;11.410;2022-08-14T04:34:15;3.27;;;2.37;;
30370;SDS011;17164;48.590;11.410;2022-08-14T04:36:40;3.77;;;2.77;;
30370;SDS011;17164;48.590;11.410;2022-08-14T04:39:25;3.53;;;2.90;;
30370;SDS011;17164;48.590;11.410;2022-08-14T04:42:09;4.60;;;2.70;;
30370;SDS011;17164;48.590;11.410;2022-08-14T04:44:53;3.43;;;2.30;;
30370;SDS011;17164;48.590;11.410;2022-08-14T04:47:19;6.20;;;3.30;;
30370;SDS011;17164;48.590;11.410;2022-08-14T04:50:03;4.07;;;2.70;;
30370;SDS011;17164;48.590;11.410;2022-08-14T04:52:30;6.50;;;2.83;;
30370;SDS011;17164;48.590;11.410;2022-08-14T04:54:55;5.30;;;3.00;;
30370;SDS011;17164;48.590;11.410;2022-08-14T04:57:22;6.93;;;2.87;;
30370;SDS011;17164;48.590;11.410;2022-08-14T04:59:48;5.07;;;2.73;;
30370;SDS011;17164;48.590;11.410;2022-08-14T05:02:16;3.70;;;2.90;;
30370;SDS011;17164;48.590;11.410;2022-08-14T05:04:42;5.80;;;2.90;;
30370;SDS011;17164;48.590;11.410;2022-08-14T05:07:08;6.63;;;3.10;;
30370;SDS011;17164;48.590;11.410;2022-08-14T05:09:33;3.27;;;2.50;;
30370;SDS011;17164;48.590;11.410;2022-08-14T05:11:59;3.73;;;2.63;;
30370;SDS011;17164;48.590;11.410;2022-08-14T05:14:24;5.27;;;3.13;;
30370;SDS011;17164;48.590;11.410;2022-08-14T05:16:52;3.30;;;2.60;;
30370;SDS011;17164;48.590;11.410;2022-08-14T05:19:18;3.27;;;2.60;;
30370;SDS011;17164;48.590;11.410;2022-08-14T05:21:43;4.60;;;2.90;;
30370;SDS011;17164;48.590;11.410;2022-08-14T05:24:09;4.43;;;2.87;;
30370;SDS011;17164;48.590;11.410;2022-08-14T05:26:36;4.67;;;2.70;;
30370;SDS011;17164;48.590;11.410;2022-08-14T05:29:06;4.17;;;3.00;;
30370;SDS011;17164;48.590;11.410;2022-08-14T05:31:33;3.87;;;3.00;;
30370;SDS011;17164;48.590;11.410;2022-08-14T05:34:04;4.80;;;3.27;;
30370;SDS011;17164;48.590;11.410;2022-08-14T05:36:32;4.53;;;3.57;;
30370;SDS011;17164;48.590;11.410;2022-08-14T05:38:58;5.07;;;3.63;;
30370;SDS011;17164;48.590;11.410;2022-08-14T05:41:24;7.00;;;4.13;;
30370;SDS011;17164;48.590;11.410;2022-08-14T05:43:50;6.87;;;4.60;;
30370;SDS011;17164;48.590;11.410;2022-08-14T05:46:17;6.63;;;4.23;;
30370;SDS011;17164;48.590;11.410;2022-08-14T05:48:53;7.10;;;3.83;;
30370;SDS011;17164;48.590;11.410;2022-08-14T05:51:20;6.27;;;4.10;;
30370;SDS011;17164;48.590;11.410;2022-08-14T05:53:47;6.40;;;4.07;;
30370;SDS011;17164;48.590;11.410;2022-08-14T05:56:14;5.00;;;4.00;;
30370;SDS011;17164;48.590;11.410;2022-08-14T05:58:39;5.97;;;4.10;;
30370;SDS011;17164;48.590;11.410;2022-08-14T06:01:07;5.20;;;3.43;;
30370;SDS011;17164;48.590;11.410;2022-08-14T06:03:34;6.43;;;3.60;;
30370;SDS011;17164;48.590;11.410;2022-08-14T06:05:59;5.57;;;3.13;;
30370;SDS011;17164;48.590;11.410;2022-08-14T06:08:27;4.90;;;3.40;;
30370;SDS011;17164;48.590;11.410;2022-08-14T06:11:04;4.93;;;3.67;;
30370;SDS011;17164;48.590;11.410;2022-08-14T06:13:32;5.80;;;3.63;;
30370;SDS011;17164;48.590;11.410;2022-08-14T06:16:03;5.40;;;3.80;;
30370;SDS011;17164;48.590;11.410;2022-08-14T06:18:29;4.30;;;3.40;;
30370;SDS011;17164;48.590;11.410;2022-08-14T06:20:55;5.13;;;3.50;;
30370;SDS011;17164;48.590;11.410;2022-08-14T06:23:21;4.60;;;3.37;;
30370;SDS011;17164;48.590;11.410;2022-08-14T06:25:46;4.43;;;2.93;;
30370;SDS011;17164;48.590;11.410;2022-08-14T06:28:19;4.53;;;3.03;;
30370;SDS011;17164;48.590;11.410;2022-08-14T06:30:46;7.27;;;3.47;;
30370;SDS011;17164;48.590;11.410;2022-08-14T06:33:13;4.83;;;3.50;;
30370;SDS011;17164;48.590;11.410;2022-08-14T06:35:39;5.13;;;3.63;;
30370;SDS011;17164;48.590;11.410;2022-08-14T06:38:05;4.53;;;3.37;;
30370;SDS011;17164;48.590;11.410;2022-08-14T06:40:35;9.23;;;3.67;;
30370;SDS011;17164;48.590;11.410;2022-08-14T06:43:06;5.27;;;3.47;;
30370;SDS011;17164;48.590;11.410;2022-08-14T06:45:33;7.73;;;3.80;;
30370;SDS011;17164;48.590;11.410;2022-08-14T06:48:01;4.87;;;3.30;;
30370;SDS011;17164;48.590;11.410;2022-08-14T06:50:28;6.27;;;3.80;;
30370;SDS011;17164;48.590;11.410;2022-08-14T06:52:55;5.07;;;3.50;;
30370;SDS011;17164;48.590;11.410;2022-08-14T06:55:22;7.10;;;3.53;;
30370;SDS011;17164;48.590;11.410;2022-08-14T06:57:48;4.70;;;2.93;;
30370;SDS011;17164;48.590;11.410;2022-08-14T07:00:19;4.63;;;3.37;;
30370;SDS011;17164;48.590;11.410;2022-08-14T07:02:47;5.17;;;3.10;;
30370;SDS011;17164;48.590;11.410;2022-08-14T07:05:32;6.43;;;3.80;;
30370;SDS011;17164;48.590;11.410;2022-08-14T07:08:17;4.77;;;3.50;;
30370;SDS011;17164;48.590;11.410;2022-08-14T07:10:45;5.33;;;3.43;;
30370;SDS011;17164;48.590;11.410;2022-08-14T07:13:14;6.17;;;3.47;;
30370;SDS011;17164;48.590;11.410;2022-08-14T07:15:41;6.07;;;3.70;;
30370;SDS011;17164;48.590;11.410;2022-08-14T07:18:11;6.90;;;3.47;;
30370;SDS011;17164;48.590;11.410;2022-08-14T07:20:38;5.20;;;3.83;;
30370;SDS011;17164;48.590;11.410;2022-08-14T07:23:06;7.43;;;3.87;;
30370;SDS011;17164;48.590;11.410;2022-08-14T07:25:33;4.80;;;3.50;;
30370;SDS011;17164;48.590;11.410;2022-08-14T07:27:59;5.00;;;3.97;;
30370;SDS011;17164;48.590;11.410;2022-08-14T07:30:25;5.13;;;4.13;;
30370;SDS011;17164;48.590;11.410;2022-08-14T07:32:51;6.70;;;4.70;;
30370;SDS011;17164;48.590;11.410;2022-08-14T07:35:17;5.77;;;4.33;;
30370;SDS011;17164;48.590;11.410;2022-08-14T07:37:45;5.70;;;4.03;;
30370;SDS011;17164;48.590;11.410;2022-08-14T07:40:12;5.43;;;4.03;;
30370;SDS011;17164;48.590;11.410;2022-08-14T07:42:37;5.27;;;4.23;;
30370;SDS011;17164;48.590;11.410;2022-08-14T07:45:03;5.37;;;4.17;;
30370;SDS011;17164;48.590;11.410;2022-08-14T07:47:29;6.57;;;4.30;;
30370;SDS011;17164;48.590;11.410;2022-08-14T07:50:03;6.77;;;3.70;;
30370;SDS011;17164;48.590;11.410;2022-08-14T07:52:36;5.80;;;3.73;;
30370;SDS011;17164;48.590;11.410;2022-08-14T07:55:02;6.40;;;3.70;;
30370;SDS011;17164;48.590;11.410;2022-08-14T07:57:30;3.70;;;2.63;;
30370;SDS011;17164;48.590;11.410;2022-08-14T07:59:55;4.53;;;2.20;;
30370;SDS011;17164;48.590;11.410;2022-08-14T08:02:21;4.70;;;2.30;;
30370;SDS011;17164;48.590;11.410;2022-08-14T08:04:48;4.73;;;2.57;;
30370;SDS011;17164;48.590;11.410;2022-08-14T08:07:17;4.70;;;2.00;;
30370;SDS011;17164;48.590;11.410;2022-08-14T08:09:46;3.67;;;2.43;;
30370;SDS011;17164;48.590;11.410;2022-08-14T08:12:14;5.60;;;2.67;;
30370;SDS011;17164;48.590;11.410;2022-08-14T08:14:42;4.93;;;2.40;;
30370;SDS011;17164;48.590;11.410;2022-08-14T08:17:08;3.97;;;2.60;;
30370;SDS011;17164;48.590;11.410;2022-08-14T08:19:34;4.90;;;2.00;;
30370;SDS011;17164;48.590;11.410;2022-08-14T08:22:02;2.80;;;1.90;;
30370;SDS011;17164;48.590;11.410;2022-08-14T08:24:28;3.47;;;2.67;;
30370;SDS011;17164;48.590;11.410;2022-08-14T08:26:54;3.33;;;2.30;;
30370;SDS011;17164;48.590;11.410;2022-08-14T08:29:20;3.77;;;2.30;;
30370;SDS011;17164;48.590;11.410;2022-08-14T08:31:50;3.67;;;2.33;;
30370;SDS011;17164;48.590;11.410;2022-08-14T08:34:16;3.30;;;2.20;;
30370;SDS011;17164;48.590;11.410;2022-08-14T08:36:43;3.80;;;2.30;;
30370;SDS011;17164;48.590;11.410;2022-08-14T08:39:09;3.17;;;2.23;;
30370;SDS011;17164;48.590;11.410;2022-08-14T08:41:42;3.70;;;2.60;;
30370;SDS011;17164;48.590;11.410;2022-08-14T08:44:11;4.53;;;2.60;;
30370;SDS011;17164;48.590;11.410;2022-08-14T08:46:37;5.23;;;2.80;;
30370;SDS011;17164;48.590;11.410;2022-08-14T08:49:04;3.40;;;2.20;;
30370;SDS011;17164;48.590;11.410;2022-08-14T08:56:41;3.37;;;2.30;;
30370;SDS011;17164;48.590;11.410;2022-08-14T08:59:42;2.80;;;2.10;;
30370;SDS011;17164;48.590;11.410;2022-08-14T09:04:28;2.43;;;2.00;;
30370;SDS011;17164;48.590;11.410;2022-08-14T09:06:57;2.00;;;1.67;;
30370;SDS011;17164;48.590;11.410;2022-08-14T09:09:28;3.13;;;2.10;;
30370;SDS011;17164;48.590;11.410;2022-08-14T09:11:56;2.93;;;2.00;;
30370;SDS011;17164;48.590;11.410;2022-08-14T09:14:25;9.37;;;2.50;;
30370;SDS011;17164;48.590;11.410;2022-08-14T09:16:55;5.13;;;2.03;;
30370;SDS011;17164;48.590;11.410;2022-08-14T09:19:23;3.93;;;2.10;;
30370;SDS011;17164;48.590;11.410;2022-08-14T09:21:48;3.97;;;1.70;;
30370;SDS011;17164;48.590;11.410;2022-08-14T09:24:14;4.33;;;1.83;;
30370;SDS011;17164;48.590;11.410;2022-08-14T09:26:40;2.13;;;1.83;;
30370;SDS011;17164;48.590;11.410;2022-08-14T09:29:08;4.57;;;2.10;;
30370;SDS011;17164;48.590;11.410;2022-08-14T09:31:35;3.27;;;2.33;;
30370;SDS011;17164;48.590;11.410;2022-08-14T09:34:11;4.00;;;2.17;;
30370;SDS011;17164;48.590;11.410;2022-08-14T09:45:46;2.30;;;2.10;;
30370;SDS011;17164;48.590;11.410;2022-08-14T09:48:20;5.93;;;1.97;;
30370;SDS011;17164;48.590;11.410;2022-08-14T09:56:08;3.60;;;2.00;;
30370;SDS011;17164;48.590;11.410;2022-08-14T09:58:43;4.53;;;2.27;;
30370;SDS011;17164;48.590;11.410;2022-08-14T10:01:11;2.43;;;1.70;;
30370;SDS011;17164;48.590;11.410;2022-08-14T10:03:51;2.20;;;1.80;;
30370;SDS011;17164;48.590;11.410;2022-08-14T10:06:20;4.37;;;1.83;;
30370;SDS011;17164;48.590;11.410;2022-08-14T10:08:50;4.20;;;1.87;;
30370;SDS011;17164;48.590;11.410;2022-08-14T10:11:27;2.97;;;2.00;;
30370;SDS011;17164;48.590;11.410;2022-08-14T10:14:10;3.10;;;2.07;;
30370;SDS011;17164;48.590;11.410;2022-08-14T10:16:41;6.63;;;2.10;;
30370;SDS011;17164;48.590;11.410;2022-08-14T10:19:09;2.90;;;2.20;;
30370;SDS011;17164;48.590;11.410;2022-08-14T10:21:37;3.23;;;2.20;;
30370;SDS011;17164;48.590;11.410;2022-08-14T10:24:05;2.97;;;2.17;;
30370;SDS011;17164;48.590;11.410;2022-08-14T10:26:35;4.93;;;1.97;;
30370;SDS011;17164;48.590;11.410;2022-08-14T10:29:05;3.07;;;1.90;;
30370;SDS011;17164;48.590;11.410;2022-08-14T10:31:33;3.90;;;2.33;;
30370;SDS011;17164;48.590;11.410;2022-08-14T10:34:00;3.00;;;1.77;;
30370;SDS011;17164;48.590;11.410;2022-08-14T10:36:30;2.97;;;1.70;;
30370;SDS011;17164;48.590;11.410;2022-08-14T10:39:03;3.07;;;2.10;;
30370;SDS011;17164;48.590;11.410;2022-08-14T10:41:40;3.20;;;1.90;;
30370;SDS011;17164;48.590;11.410;2022-08-14T10:44:13;2.50;;;2.07;;
30370;SDS011;17164;48.590;11.410;2022-08-14T10:46:51;2.57;;;2.13;;
30370;SDS011;17164;48.590;11.410;2022-08-14T10:49:32;4.80;;;2.07;;
30370;SDS011;17164;48.590;11.410;2022-08-14T10:54:35;2.80;;;1.90;;
30370;SDS011;17164;48.590;11.410;2022-08-14T10:57:14;2.07;;;1.77;;
30370;SDS011;17164;48.590;11.410;2022-08-14T10:59:40;3.30;;;1.60;;
30370;SDS011;17164;48.590;11.410;2022-08-14T11:02:15;3.97;;;1.70;;
30370;SDS011;17164;48.590;11.410;2022-08-14T11:04:44;1.90;;;1.77;;
30370;SDS011;17164;48.590;11.410;2022-08-14T11:07:29;3.77;;;1.70;;
30370;SDS011;17164;48.590;11.410;2022-08-14T11:09:59;2.17;;;1.57;;
30370;SDS011;17164;48.590;11.410;2022-08-14T11:12:38;2.20;;;1.80;;
30370;SDS011;17164;48.590;11.410;2022-08-14T11:15:18;2.10;;;1.90;;
30370;SDS011;17164;48.590;11.410;2022-08-14T11:17:47;3.63;;;1.80;;
30370;SDS011;17164;48.590;11.410;2022-08-14T11:20:15;2.20;;;1.80;;
30370;SDS011;17164;48.590;11.410;2022-08-14T11:22:42;2.67;;;2.00;;
30370;SDS011;17164;48.590;11.410;2022-08-14T11:25:10;2.47;;;1.97;;
30370;SDS011;17164;48.590;11.410;2022-08-14T11:27:40;3.07;;;1.90;;
30370;SDS011;17164;48.590;11.410;2022-08-14T11:30:11;4.23;;;1.80;;
30370;SDS011;17164;48.590;11.410;2022-08-14T11:32:40;2.97;;;1.90;;
30370;SDS011;17164;48.590;11.410;2022-08-14T11:35:11;3.40;;;1.80;;
30370;SDS011;17164;48.590;11.410;2022-08-14T11:37:53;2.40;;;1.80;;
30370;SDS011;17164;48.590;11.410;2022-08-14T11:40:25;2.30;;;1.90;;
30370;SDS011;17164;48.590;11.410;2022-08-14T11:42:54;2.17;;;1.97;;
30370;SDS011;17164;48.590;11.410;2022-08-14T11:45:22;2.67;;;2.07;;
30370;SDS011;17164;48.590;11.410;2022-08-14T11:47:50;2.20;;;1.97;;
30370;SDS011;17164;48.590;11.410;2022-08-14T11:50:21;3.00;;;1.70;;
30370;SDS011;17164;48.590;11.410;2022-08-14T11:52:48;1.87;;;1.70;;
30370;SDS011;17164;48.590;11.410;2022-08-14T11:55:19;2.23;;;1.83;;
30370;SDS011;17164;48.590;11.410;2022-08-14T11:57:45;2.83;;;1.97;;
30370;SDS011;17164;48.590;11.410;2022-08-14T12:00:13;3.00;;;2.07;;
30370;SDS011;17164;48.590;11.410;2022-08-14T12:02:50;3.67;;;2.00;;
30370;SDS011;17164;48.590;11.410;2022-08-14T12:05:26;3.93;;;2.17;;
30370;SDS011;17164;48.590;11.410;2022-08-14T12:07:57;3.23;;;1.80;;
30370;SDS011;17164;48.590;11.410;2022-08-14T12:10:24;6.30;;;2.10;;
30370;SDS011;17164;48.590;11.410;2022-08-14T12:12:49;3.80;;;1.80;;
30370;SDS011;17164;48.590;11.410;2022-08-14T12:15:27;4.13;;;2.00;;
30370;SDS011;17164;48.590;11.410;2022-08-14T12:17:53;2.50;;;1.83;;
30370;SDS011;17164;48.590;11.410;2022-08-14T12:20:27;2.40;;;1.57;;
30370;SDS011;17164;48.590;11.410;2022-08-14T12:22:53;2.00;;;1.43;;
30370;SDS011;17164;48.590;11.410;2022-08-14T12:25:21;1.97;;;1.77;;
30370;SDS011;17164;48.590;11.410;2022-08-14T12:27:48;2.70;;;1.90;;
30370;SDS011;17164;48.590;11.410;2022-08-14T12:30:31;2.50;;;2.00;;
30370;SDS011;17164;48.590;11.410;2022-08-14T12:33:21;2.30;;;2.00;;
30370;SDS011;17164;48.590;11.410;2022-08-14T12:35:51;3.43;;;1.70;;
30370;SDS011;17164;48.590;11.410;2022-08-14T12:38:18;9.30;;;2.00;;
30370;SDS011;17164;48.590;11.410;2022-08-14T12:40:56;6.77;;;2.00;;
30370;SDS011;17164;48.590;11.410;2022-08-14T12:43:23;6.40;;;2.37;;
30370;SDS011;17164;48.590;11.410;2022-08-14T12:45:50;2.97;;;1.90;;
30370;SDS011;17164;48.590;11.410;2022-08-14T12:48:19;2.27;;;1.80;;
30370;SDS011;17164;48.590;11.410;2022-08-14T12:50:46;3.80;;;2.10;;
30370;SDS011;17164;48.590;11.410;2022-08-14T12:53:15;3.47;;;2.10;;
30370;SDS011;17164;48.590;11.410;2022-08-14T12:55:42;3.90;;;2.23;;
30370;SDS011;17164;48.590;11.410;2022-08-14T12:58:08;2.60;;;1.80;;
30370;SDS011;17164;48.590;11.410;2022-08-14T13:00:45;4.40;;;2.13;;
30370;SDS011;17164;48.590;11.410;2022-08-14T13:03:27;2.63;;;2.13;;
30370;SDS011;17164;48.590;11.410;2022-08-14T13:05:53;3.00;;;1.90;;
30370;SDS011;17164;48.590;11.410;2022-08-14T13:08:19;2.40;;;1.93;;
30370;SDS011;17164;48.590;11.410;2022-08-14T13:10:50;2.97;;;2.20;;
30370;SDS011;17164;48.590;11.410;2022-08-14T13:13:16;2.45;;;1.90;;
30370;SDS011;17164;48.590;11.410;2022-08-14T13:15:43;3.90;;;1.80;;
30370;SDS011;17164;48.590;11.410;2022-08-14T13:18:09;2.57;;;1.80;;
30370;SDS011;17164;48.590;11.410;2022-08-14T13:20:38;2.80;;;2.10;;
30370;SDS011;17164;48.590;11.410;2022-08-14T13:23:05;3.57;;;2.00;;
30370;SDS011;17164;48.590;11.410;2022-08-14T13:25:32;3.73;;;1.90;;
30370;SDS011;17164;48.590;11.410;2022-08-14T13:28:01;4.63;;;2.00;;
30370;SDS011;17164;48.590;11.410;2022-08-14T13:30:28;2.70;;;2.00;;
30370;SDS011;17164;48.590;11.410;2022-08-14T13:32:55;2.30;;;1.80;;
30370;SDS011;17164;48.590;11.410;2022-08-14T13:35:22;2.47;;;1.90;;
30370;SDS011;17164;48.590;11.410;2022-08-14T13:37:48;2.77;;;2.10;;
30370;SDS011;17164;48.590;11.410;2022-08-14T13:40:18;4.33;;;2.00;;
30370;SDS011;17164;48.590;11.410;2022-08-14T13:42:47;2.13;;;1.93;;
30370;SDS011;17164;48.590;11.410;2022-08-14T13:45:15;2.33;;;2.00;;
30370;SDS011;17164;48.590;11.410;2022-08-14T13:47:40;2.97;;;2.10;;
30370;SDS011;17164;48.590;11.410;2022-08-14T13:50:08;3.67;;;1.90;;
30370;SDS011;17164;48.590;11.410;2022-08-14T13:55:06;2.47;;;2.03;;
30370;SDS011;17164;48.590;11.410;2022-08-14T13:57:34;2.73;;;1.80;;
30370;SDS011;17164;48.590;11.410;2022-08-14T14:00:07;3.23;;;1.90;;
30370;SDS011;17164;48.590;11.410;2022-08-14T14:02:38;2.93;;;2.07;;
30370;SDS011;17164;48.590;11.410;2022-08-14T14:05:10;3.00;;;2.07;;
30370;SDS011;17164;48.590;11.410;2022-08-14T14:07:38;2.50;;;1.90;;
30370;SDS011;17164;48.590;11.410;2022-08-14T14:10:10;2.20;;;2.00;;
30370;SDS011;17164;48.590;11.410;2022-08-14T14:12:37;2.83;;;1.70;;
30370;SDS011;17164;48.590;11.410;2022-08-14T14:15:07;4.30;;;2.30;;
30370;SDS011;17164;48.590;11.410;2022-08-14T14:17:38;2.63;;;2.07;;
30370;SDS011;17164;48.590;11.410;2022-08-14T14:20:05;2.53;;;1.83;;
30370;SDS011;17164;48.590;11.410;2022-08-14T14:22:35;2.20;;;1.83;;
30370;SDS011;17164;48.590;11.410;2022-08-14T14:25:05;2.20;;;1.70;;
30370;SDS011;17164;48.590;11.410;2022-08-14T14:27:31;3.43;;;2.30;;
30370;SDS011;17164;48.590;11.410;2022-08-14T14:30:01;2.17;;;1.80;;
30370;SDS011;17164;48.590;11.410;2022-08-14T14:32:30;4.10;;;1.97;;
30370;SDS011;17164;48.590;11.410;2022-08-14T14:34:59;2.73;;;2.10;;
30370;SDS011;17164;48.590;11.410;2022-08-14T14:37:26;5.80;;;2.10;;
30370;SDS011;17164;48.590;11.410;2022-08-14T14:39:53;3.27;;;2.00;;
30370;SDS011;17164;48.590;11.410;2022-08-14T14:42:23;2.53;;;1.70;;
30370;SDS011;17164;48.590;11.410;2022-08-14T14:44:50;2.77;;;2.13;;
30370;SDS011;17164;48.590;11.410;2022-08-14T14:47:20;6.00;;;2.20;;
30370;SDS011;17164;48.590;11.410;2022-08-14T14:49:47;2.67;;;1.80;;
30370;SDS011;17164;48.590;11.410;2022-08-14T14:52:13;1.93;;;1.70;;
30370;SDS011;17164;48.590;11.410;2022-08-14T14:54:40;3.73;;;1.90;;
30370;SDS011;17164;48.590;11.410;2022-08-14T14:57:07;7.33;;;2.30;;
30370;SDS011;17164;48.590;11.410;2022-08-14T14:59:37;2.23;;;1.90;;
30370;SDS011;17164;48.590;11.410;2022-08-14T15:02:04;4.67;;;1.80;;
30370;SDS011;17164;48.590;11.410;2022-08-14T15:04:34;4.10;;;2.00;;
30370;SDS011;17164;48.590;11.410;2022-08-14T15:07:01;5.10;;;1.90;;
30370;SDS011;17164;48.590;11.410;2022-08-14T15:09:28;3.03;;;1.97;;